createdAt,value
2023-04-08T00:00:10.402Z,98892.66
2023-04-08T00:02:37.303Z,98893.06
2023-04-08T00:05:04.971Z,98890.34
2023-04-08T00:07:31.798Z,98886.72
2023-04-08T00:09:58.356Z,98896.59
2023-04-08T00:12:25.299Z,98895.56
2023-04-08T00:14:51.999Z,98893.75
2023-04-08T00:17:18.730Z,98894.38
2023-04-08T00:19:45.320Z,98897.91
2023-04-08T00:22:11.940Z,98900.22
2023-04-08T00:24:40.484Z,98898.84
2023-04-08T00:27:07.033Z,98901.38
2023-04-08T00:29:33.587Z,98903.75
2023-04-08T00:32:01.713Z,98900.88
2023-04-08T00:34:28.348Z,98908.16
2023-04-08T00:36:54.922Z,98912.56
2023-04-08T00:39:21.546Z,98914.19
2023-04-08T00:41:48.118Z,98908.28
2023-04-08T00:44:15.302Z,98914.97
2023-04-08T00:46:41.986Z,98908.25
2023-04-08T00:49:08.795Z,98915.34
2023-04-08T00:51:38.659Z,98917.13
2023-04-08T00:54:06.243Z,98921.03
2023-04-08T00:56:34.906Z,98920.75
2023-04-08T00:59:01.765Z,98916.28
2023-04-08T01:01:51.718Z,98915.50
2023-04-08T01:04:47.042Z,98919.66
2023-04-08T01:07:24.958Z,98920.72
2023-04-08T01:10:22.303Z,98920.25
2023-04-08T01:12:55.307Z,98918.66
2023-04-08T01:15:24.065Z,98911.69
2023-04-08T01:17:56.221Z,98914.66
2023-04-08T01:20:26.065Z,98915.97
2023-04-08T01:23:13.189Z,98918.34
2023-04-08T01:25:39.834Z,98914.78
2023-04-08T01:28:15.713Z,98916.91
2023-04-08T01:30:46.255Z,98918.44
2023-04-08T01:33:16.620Z,98915.00
2023-04-08T01:35:45.345Z,98928.81
2023-04-08T01:38:21.049Z,98928.47
2023-04-08T01:40:49.535Z,98928.09
2023-04-08T01:43:18.568Z,98931.84
2023-04-08T01:45:48.176Z,98929.38
2023-04-08T01:48:16.234Z,98931.84
2023-04-08T01:50:45.391Z,98925.84
2023-04-08T01:53:12.844Z,98934.63
2023-04-08T01:55:42.468Z,98935.81
2023-04-08T01:58:18.189Z,98936.66
2023-04-08T02:00:46.488Z,98929.44
2023-04-08T02:03:17.655Z,98935.38
2023-04-08T02:05:44.383Z,98940.53
2023-04-08T02:08:12.712Z,98935.53
2023-04-08T02:10:39.346Z,98935.25
2023-04-08T02:13:06.450Z,98933.25
2023-04-08T02:15:43.053Z,98925.41
2023-04-08T02:18:16.715Z,98929.56
2023-04-08T02:21:03.586Z,98933.75
2023-04-08T02:23:35.561Z,98936.22
2023-04-08T02:26:07.679Z,98933.19
2023-04-08T02:28:35.871Z,98938.50
2023-04-08T02:31:04.085Z,98933.97
2023-04-08T02:33:31.651Z,98936.50
2023-04-08T02:35:59.752Z,98939.19
2023-04-08T02:38:29.811Z,98934.88
2023-04-08T02:40:56.874Z,98933.38
2023-04-08T02:43:31.631Z,98938.00
2023-04-08T02:46:05.867Z,98937.38
2023-04-08T02:48:33.174Z,98940.41
2023-04-08T02:50:59.783Z,98940.03
2023-04-08T02:53:26.487Z,98941.19
2023-04-08T02:55:53.255Z,98945.66
2023-04-08T02:58:19.905Z,98943.09
2023-04-08T03:00:46.618Z,98950.31
2023-04-08T03:03:13.262Z,98952.19
2023-04-08T03:05:39.855Z,98945.84
2023-04-08T03:08:06.874Z,98959.84
2023-04-08T03:10:33.622Z,98957.66
2023-04-08T03:13:00.325Z,98962.75
2023-04-08T03:15:27.438Z,98961.09
2023-04-08T03:17:54.119Z,98960.38
2023-04-08T03:20:20.753Z,98959.59
2023-04-08T03:22:47.578Z,98962.38
2023-04-08T03:25:14.192Z,98964.47
2023-04-08T03:27:40.805Z,98964.09
2023-04-08T03:30:08.516Z,98961.78
2023-04-08T03:32:35.367Z,98964.09
2023-04-08T03:35:01.979Z,98965.09
2023-04-08T03:37:28.525Z,98969.22
2023-04-08T03:39:56.137Z,98965.06
2023-04-08T03:42:22.943Z,98961.53
2023-04-08T03:44:49.641Z,98961.41
2023-04-08T03:47:16.250Z,98967.38
2023-04-08T03:49:42.799Z,98963.06
2023-04-08T03:52:09.442Z,98958.75
2023-04-08T03:54:36.016Z,98962.00
2023-04-08T03:57:02.608Z,98964.31
2023-04-08T03:59:29.274Z,98958.16
2023-04-08T04:01:56.502Z,98960.78
2023-04-08T04:04:24.585Z,98952.16
2023-04-08T04:06:51.296Z,98961.63
2023-04-08T04:09:17.939Z,98961.69
2023-04-08T04:11:44.569Z,98961.69
2023-04-08T04:14:11.161Z,98962.53
2023-04-08T04:16:37.725Z,98969.41
2023-04-08T04:19:04.368Z,98963.50
2023-04-08T04:21:31.297Z,98974.88
2023-04-08T04:23:57.857Z,98976.72
2023-04-08T04:26:24.481Z,98976.78
2023-04-08T04:28:51.198Z,98981.78
2023-04-08T04:31:23.115Z,98984.81
2023-04-08T04:33:49.809Z,98983.88
2023-04-08T04:36:16.415Z,98984.88
2023-04-08T04:38:43.552Z,98983.66
2023-04-08T04:41:10.928Z,98978.94
2023-04-08T04:43:37.901Z,98985.81
2023-04-08T04:46:07.194Z,98982.28
2023-04-08T04:48:34.226Z,98985.16
2023-04-08T04:51:03.351Z,98985.31
2023-04-08T04:53:33.235Z,98982.72
2023-04-08T04:56:01.740Z,98985.72
2023-04-08T04:58:29.007Z,98985.34
2023-04-08T05:00:56.506Z,98994.09
2023-04-08T05:03:23.533Z,98996.31
2023-04-08T05:05:54.825Z,98992.13
2023-04-08T05:08:22.218Z,98992.25
2023-04-08T05:10:50.709Z,98998.94
2023-04-08T05:13:18.683Z,98999.66
2023-04-08T05:15:48.140Z,98998.69
2023-04-08T05:18:14.800Z,99000.00
2023-04-08T05:20:44.629Z,98996.41
2023-04-08T05:23:11.196Z,99001.03
2023-04-08T05:25:37.937Z,99008.88
2023-04-08T05:28:04.684Z,98999.44
2023-04-08T05:30:31.415Z,99007.81
2023-04-08T05:33:00.350Z,99007.44
2023-04-08T05:35:28.477Z,99012.41
2023-04-08T05:37:55.388Z,99016.19
2023-04-08T05:40:22.040Z,99004.88
2023-04-08T05:42:48.732Z,99012.53
2023-04-08T05:45:16.267Z,99012.22
2023-04-08T05:47:42.980Z,99010.19
2023-04-08T05:50:11.295Z,99018.16
2023-04-08T05:52:38.040Z,99007.84
2023-04-08T05:55:06.169Z,99013.75
2023-04-08T05:57:32.742Z,99015.97
2023-04-08T05:59:59.419Z,99018.34
2023-04-08T06:02:26.172Z,99020.22
2023-04-08T06:04:52.939Z,99023.03
2023-04-08T06:07:19.625Z,99022.75
2023-04-08T06:09:46.164Z,99023.41
2023-04-08T06:12:12.718Z,99028.63
2023-04-08T06:14:39.294Z,99025.59
2023-04-08T06:17:06.299Z,99031.50
2023-04-08T06:19:32.959Z,99033.75
2023-04-08T06:21:59.560Z,99032.63
2023-04-08T06:24:27.502Z,99036.53
2023-04-08T06:26:54.211Z,99040.53
2023-04-08T06:29:24.015Z,99038.28
2023-04-08T06:31:51.242Z,99042.97
2023-04-08T06:34:17.996Z,99041.13
2023-04-08T06:36:44.597Z,99045.38
2023-04-08T06:39:11.154Z,99050.25
2023-04-08T06:41:37.819Z,99043.97
2023-04-08T06:44:04.486Z,99053.03
2023-04-08T06:46:31.312Z,99045.88
2023-04-08T06:48:57.840Z,99046.50
2023-04-08T06:51:24.380Z,99045.66
2023-04-08T06:53:50.888Z,99051.47
2023-04-08T06:56:17.711Z,99049.72
2023-04-08T06:58:44.346Z,99047.75
2023-04-08T07:01:11.213Z,99053.50
2023-04-08T07:03:38.147Z,99060.06
2023-04-08T07:06:05.175Z,99059.94
2023-04-08T07:08:31.757Z,99055.53
2023-04-08T07:10:58.320Z,99063.91
2023-04-08T07:13:24.856Z,99063.53
2023-04-08T07:15:52.074Z,99064.84
2023-04-08T07:18:18.641Z,99068.03
2023-04-08T07:20:45.482Z,99068.50
2023-04-08T07:23:12.026Z,99070.03
2023-04-08T07:25:38.598Z,99074.06
2023-04-08T07:28:05.239Z,99077.31
2023-04-08T07:30:31.973Z,99072.63
2023-04-08T07:33:00.715Z,99073.31
2023-04-08T07:35:27.940Z,99076.78
2023-04-08T07:37:55.059Z,99074.72
2023-04-08T07:40:21.662Z,99085.03
2023-04-08T07:42:48.214Z,99089.91
2023-04-08T07:45:15.428Z,99094.06
2023-04-08T07:47:42.245Z,99089.56
2023-04-08T07:50:09.283Z,99096.69
2023-04-08T07:52:35.849Z,99105.25
2023-04-08T07:55:02.608Z,99090.97
2023-04-08T07:57:29.295Z,99088.66
2023-04-08T07:59:56.190Z,99099.00
2023-04-08T08:02:23.168Z,99092.69
2023-04-08T08:04:50.218Z,99095.22
2023-04-08T08:07:16.868Z,99095.91
2023-04-08T08:09:43.556Z,99096.75
2023-04-08T08:12:10.189Z,99104.38
2023-04-08T08:14:36.832Z,99100.84
2023-04-08T08:17:04.547Z,99103.63
2023-04-08T08:19:31.147Z,99113.09
2023-04-08T08:21:58.009Z,99105.41
2023-04-08T08:24:25.894Z,99111.56
2023-04-08T08:26:52.456Z,99106.25
2023-04-08T08:29:19.074Z,99112.03
2023-04-08T08:31:45.695Z,99106.38
2023-04-08T08:34:12.301Z,99107.75
2023-04-08T08:36:38.910Z,99110.38
2023-04-08T08:39:05.619Z,99117.66
2023-04-08T08:41:36.581Z,99114.19
2023-04-08T08:44:07.400Z,99125.25
2023-04-08T08:46:34.951Z,99129.53
2023-04-08T08:49:02.290Z,99124.75
2023-04-08T08:51:30.126Z,99125.69
2023-04-08T08:53:56.746Z,99130.00
2023-04-08T08:56:23.354Z,99134.31
2023-04-08T08:58:49.910Z,99126.91
2023-04-08T09:01:41.593Z,99130.16
2023-04-08T09:04:18.569Z,99131.00
2023-04-08T09:07:11.108Z,99136.81
2023-04-08T09:09:59.526Z,99140.72
2023-04-08T09:12:31.265Z,99133.66
2023-04-08T09:15:10.037Z,99131.78
2023-04-08T09:17:41.331Z,99136.72
2023-04-08T09:20:13.449Z,99139.00
2023-04-08T09:23:02.346Z,99143.13
2023-04-08T09:25:34.029Z,99140.28
2023-04-08T09:28:02.126Z,99146.47
2023-04-08T09:30:28.964Z,99146.91
2023-04-08T09:32:57.847Z,99151.06
2023-04-08T09:35:25.921Z,99147.97
2023-04-08T09:37:52.827Z,99155.34
2023-04-08T09:40:19.647Z,99152.44
2023-04-08T09:42:54.104Z,99155.78
2023-04-08T09:45:21.928Z,99149.28
2023-04-08T09:48:08.481Z,99144.78
2023-04-08T09:50:44.004Z,99146.13
2023-04-08T09:53:18.848Z,99154.47
2023-04-08T09:55:53.247Z,99150.47
2023-04-08T09:58:28.476Z,99156.84
2023-04-08T10:00:55.845Z,99154.38
2023-04-08T10:03:49.080Z,99144.16
2023-04-08T10:06:17.125Z,99147.25
2023-04-08T10:08:45.172Z,99155.28
2023-04-08T10:11:12.054Z,99147.38
2023-04-08T10:13:38.868Z,99149.94
2023-04-08T10:16:27.136Z,99160.41
2023-04-08T10:18:57.379Z,99149.28
2023-04-08T10:21:48.491Z,99158.47
2023-04-08T10:24:15.063Z,99158.88
2023-04-08T10:26:44.532Z,99153.69
2023-04-08T10:29:21.217Z,99156.78
2023-04-08T10:31:50.688Z,99157.91
2023-04-08T10:34:22.952Z,99146.88
2023-04-08T10:36:49.939Z,99149.22
2023-04-08T10:39:17.303Z,99152.25
2023-04-08T10:41:45.891Z,99152.75
2023-04-08T10:44:22.406Z,99151.13
2023-04-08T10:46:51.458Z,99155.56
2023-04-08T10:49:18.802Z,99152.72
2023-04-08T10:51:46.992Z,99150.25
2023-04-08T10:54:18.469Z,99160.09
2023-04-08T10:56:51.366Z,99150.28
2023-04-08T10:59:29.762Z,99153.88
2023-04-08T11:01:56.533Z,99152.16
2023-04-08T11:04:26.367Z,99154.59
2023-04-08T11:06:53.724Z,99162.34
2023-04-08T11:09:20.488Z,99163.75
2023-04-08T11:11:47.417Z,99155.78
2023-04-08T11:14:14.485Z,99152.44
2023-04-08T11:16:41.508Z,99154.53
2023-04-08T11:19:08.880Z,99161.03
2023-04-08T11:21:37.506Z,99152.59
2023-04-08T11:24:16.383Z,99152.88
2023-04-08T11:26:43.499Z,99148.59
2023-04-08T11:29:14.235Z,99149.53
2023-04-08T11:31:43.864Z,99158.38
2023-04-08T11:34:10.796Z,99156.59
2023-04-08T11:36:41.517Z,99162.59
2023-04-08T11:39:10.601Z,99158.34
2023-04-08T11:41:41.347Z,99152.59
2023-04-08T11:44:08.983Z,99150.88
2023-04-08T11:46:36.586Z,99146.94
2023-04-08T11:49:08.932Z,99149.00
2023-04-08T11:51:54.985Z,99153.72
2023-04-08T11:54:32.284Z,99145.44
2023-04-08T11:56:59.611Z,99148.09
2023-04-08T11:59:28.950Z,99142.84
2023-04-08T12:01:56.462Z,99141.00
2023-04-08T12:04:23.264Z,99141.66
2023-04-08T12:06:50.032Z,99141.19
2023-04-08T12:09:16.629Z,99139.56
2023-04-08T12:11:43.274Z,99126.06
2023-04-08T12:14:09.985Z,99129.78
2023-04-08T12:16:36.692Z,99123.19
2023-04-08T12:19:03.413Z,99123.88
2023-04-08T12:21:29.978Z,99123.13
2023-04-08T12:23:56.785Z,99122.75
2023-04-08T12:26:24.237Z,99129.91
2023-04-08T12:28:51.050Z,99123.59
2023-04-08T12:31:17.643Z,99125.16
2023-04-08T12:33:44.374Z,99126.94
2023-04-08T12:36:13.426Z,99125.25
2023-04-08T12:38:40.336Z,99117.97
2023-04-08T12:41:07.649Z,99123.06
2023-04-08T12:43:34.552Z,99117.75
2023-04-08T12:46:01.958Z,99120.06
2023-04-08T12:48:28.517Z,99121.78
2023-04-08T12:50:55.076Z,99126.13
2023-04-08T12:53:21.740Z,99119.00
2023-04-08T12:55:49.204Z,99125.59
2023-04-08T12:58:16.920Z,99128.94
2023-04-08T13:00:46.542Z,99119.66
2023-04-08T13:03:15.861Z,99116.28
2023-04-08T13:05:43.880Z,99120.16
2023-04-08T13:08:14.488Z,99122.81
2023-04-08T13:10:42.593Z,99113.84
2023-04-08T13:13:09.188Z,99113.19
2023-04-08T13:15:35.823Z,99111.13
2023-04-08T13:18:02.564Z,99111.78
2023-04-08T13:20:29.220Z,99114.47
2023-04-08T13:22:56.091Z,99113.84
2023-04-08T13:25:22.789Z,99117.66
2023-04-08T13:27:49.340Z,99113.13
2023-04-08T13:30:16.463Z,99111.88
2023-04-08T13:32:43.376Z,99109.75
2023-04-08T13:35:10.118Z,99108.88
2023-04-08T13:37:36.993Z,99109.50
2023-04-08T13:40:04.765Z,99109.75
2023-04-08T13:42:31.552Z,99101.53
2023-04-08T13:44:58.311Z,99101.25
2023-04-08T13:47:25.136Z,99097.66
2023-04-08T13:49:51.911Z,99103.00
2023-04-08T13:52:18.574Z,99101.06
2023-04-08T13:54:45.178Z,99097.19
2023-04-08T13:57:12.126Z,99105.38
2023-04-08T13:59:38.719Z,99100.69
2023-04-08T14:02:05.981Z,99110.38
2023-04-08T14:04:32.910Z,99105.63
2023-04-08T14:06:59.518Z,99111.22
2023-04-08T14:09:26.116Z,99104.19
2023-04-08T14:11:52.689Z,99105.22
2023-04-08T14:14:19.306Z,99105.16
2023-04-08T14:16:46.289Z,99099.25
2023-04-08T14:19:13.630Z,99100.56
2023-04-08T14:21:40.463Z,99103.16
2023-04-08T14:24:08.148Z,99109.56
2023-04-08T14:26:36.027Z,99104.75
2023-04-08T14:29:05.049Z,99101.13
2023-04-08T14:31:33.320Z,99100.03
2023-04-08T14:34:00.944Z,99095.09
2023-04-08T14:36:28.452Z,99095.41
2023-04-08T14:38:55.899Z,99102.41
2023-04-08T14:41:22.618Z,99101.22
2023-04-08T14:43:49.545Z,99101.56
2023-04-08T14:46:16.737Z,99101.69
2023-04-08T14:48:43.400Z,99095.59
2023-04-08T14:51:10.280Z,99102.44
2023-04-08T14:53:36.943Z,99106.31
2023-04-08T14:56:04.207Z,99107.78
2023-04-08T14:58:31.076Z,99105.06
2023-04-08T15:00:57.677Z,99107.00
2023-04-08T15:03:24.400Z,99107.78
2023-04-08T15:05:51.032Z,99102.53
2023-04-08T15:08:17.759Z,99106.44
2023-04-08T15:10:44.410Z,99107.00
2023-04-08T15:13:11.191Z,99103.72
2023-04-08T15:15:37.857Z,99105.41
2023-04-08T15:18:04.476Z,99111.63
2023-04-08T15:20:31.135Z,99102.97
2023-04-08T15:22:57.705Z,99107.22
2023-04-08T15:25:24.367Z,99106.38
2023-04-08T15:27:50.976Z,99099.16
2023-04-08T15:30:24.062Z,99098.09
2023-04-08T15:32:52.249Z,99101.78
2023-04-08T15:35:19.325Z,99107.97
2023-04-08T15:37:46.032Z,99103.88
2023-04-08T15:40:12.875Z,99098.75
2023-04-08T15:42:39.529Z,99096.81
2023-04-08T15:45:06.721Z,99102.31
2023-04-08T15:47:35.159Z,99107.63
2023-04-08T15:50:01.853Z,99105.31
2023-04-08T15:52:28.487Z,99115.72
2023-04-08T15:54:55.061Z,99110.16
2023-04-08T15:57:26.390Z,99103.91
2023-04-08T15:59:53.594Z,99100.41
2023-04-08T16:02:20.611Z,99101.44
2023-04-08T16:04:56.918Z,99110.44
2023-04-08T16:07:23.478Z,99106.03
2023-04-08T16:09:50.291Z,99105.59
2023-04-08T16:12:16.844Z,99112.22
2023-04-08T16:14:43.454Z,99114.31
2023-04-08T16:17:10.088Z,99110.69
2023-04-08T16:19:36.631Z,99106.84
2023-04-08T16:22:03.420Z,99109.06
2023-04-08T16:24:30.033Z,99110.31
2023-04-08T16:26:57.702Z,99113.59
2023-04-08T16:29:24.496Z,99116.13
2023-04-08T16:31:53.175Z,99117.50
2023-04-08T16:34:21.428Z,99119.06
2023-04-08T16:36:48.072Z,99130.81
2023-04-08T16:39:14.635Z,99122.84
2023-04-08T16:41:41.283Z,99134.53
2023-04-08T16:44:07.859Z,99136.78
2023-04-08T16:46:34.431Z,99135.56
2023-04-08T16:49:01.222Z,99134.22
2023-04-08T16:51:28.439Z,99145.06
2023-04-08T16:53:57.125Z,99136.47
2023-04-08T16:56:25.178Z,99140.16
2023-04-08T16:58:52.406Z,99139.44
2023-04-08T17:01:19.726Z,99144.22
2023-04-08T17:03:47.972Z,99148.34
2023-04-08T17:06:14.704Z,99154.25
2023-04-08T17:08:44.271Z,99157.09
2023-04-08T17:11:14.338Z,99152.84
2023-04-08T17:13:42.971Z,99157.63
2023-04-08T17:16:15.679Z,99153.59
2023-04-08T17:18:43.316Z,99153.88
2023-04-08T17:21:10.679Z,99152.50
2023-04-08T17:23:37.343Z,99163.50
2023-04-08T17:26:10.042Z,99169.44
2023-04-08T17:28:36.693Z,99158.13
2023-04-08T17:31:03.593Z,99173.63
2023-04-08T17:33:30.279Z,99167.28
2023-04-08T17:35:57.006Z,99177.75
2023-04-08T17:38:23.675Z,99175.22
2023-04-08T17:40:50.938Z,99176.50
2023-04-08T17:43:18.060Z,99173.44
2023-04-08T17:45:45.027Z,99171.63
2023-04-08T17:48:11.726Z,99184.72
2023-04-08T17:50:38.354Z,99178.81
2023-04-08T17:53:04.905Z,99178.81
2023-04-08T17:55:31.459Z,99183.50
2023-04-08T17:57:58.060Z,99183.50
2023-04-08T18:00:26.198Z,99188.59
2023-04-08T18:02:52.945Z,99193.88
2023-04-08T18:05:20.202Z,99200.84
2023-04-08T18:07:46.851Z,99194.16
2023-04-08T18:10:13.603Z,99199.09
2023-04-08T18:12:40.313Z,99195.69
2023-04-08T18:15:07.682Z,99196.75
2023-04-08T18:17:34.810Z,99200.25
2023-04-08T18:20:01.483Z,99202.91
2023-04-08T18:22:28.036Z,99197.97
2023-04-08T18:24:54.645Z,99204.44
2023-04-08T18:27:21.321Z,99217.75
2023-04-08T18:29:48.078Z,99211.88
2023-04-08T18:32:14.645Z,99221.19
2023-04-08T18:34:41.664Z,99226.19
2023-04-08T18:37:08.360Z,99223.72
2023-04-08T18:39:34.964Z,99235.66
2023-04-08T18:42:01.540Z,99237.28
2023-04-08T18:44:28.609Z,99238.53
2023-04-08T18:46:56.367Z,99241.13
2023-04-08T18:49:23.312Z,99245.03
2023-04-08T18:52:01.258Z,99246.88
2023-04-08T18:54:28.919Z,99250.78
2023-04-08T18:56:55.500Z,99244.59
2023-04-08T18:59:23.311Z,99253.78
2023-04-08T19:01:50.642Z,99254.59
2023-04-08T19:04:18.158Z,99261.53
2023-04-08T19:06:44.874Z,99255.66
2023-04-08T19:09:11.560Z,99250.91
2023-04-08T19:11:38.152Z,99257.16
2023-04-08T19:14:04.869Z,99256.00
2023-04-08T19:16:31.545Z,99268.00
2023-04-08T19:18:58.190Z,99268.28
2023-04-08T19:21:24.910Z,99266.91
2023-04-08T19:23:51.637Z,99266.22
2023-04-08T19:26:18.479Z,99268.22
2023-04-08T19:28:46.134Z,99264.53
2023-04-08T19:31:20.589Z,99272.59
2023-04-08T19:33:47.767Z,99274.00
2023-04-08T19:36:14.546Z,99276.16
2023-04-08T19:38:41.429Z,99274.34
2023-04-08T19:41:08.081Z,99277.63
2023-04-08T19:43:34.674Z,99278.84
2023-04-08T19:46:02.459Z,99277.28
2023-04-08T19:48:29.383Z,99281.97
2023-04-08T19:50:56.251Z,99281.47
2023-04-08T19:53:22.838Z,99284.31
2023-04-08T19:55:49.611Z,99276.78
2023-04-08T19:58:16.611Z,99284.50
2023-04-08T20:00:43.210Z,99285.25
2023-04-08T20:03:10.134Z,99288.22
2023-04-08T20:05:37.340Z,99281.00
2023-04-08T20:08:03.987Z,99281.84
2023-04-08T20:10:30.679Z,99293.38
2023-04-08T20:12:57.332Z,99290.16
2023-04-08T20:15:25.395Z,99290.69
2023-04-08T20:17:53.292Z,99289.63
2023-04-08T20:20:20.485Z,99290.31
2023-04-08T20:22:47.150Z,99297.81
2023-04-08T20:25:13.855Z,99298.19
2023-04-08T20:27:41.317Z,99295.97
2023-04-08T20:30:09.182Z,99298.69
2023-04-08T20:32:36.302Z,99297.00
2023-04-08T20:35:04.737Z,99302.25
2023-04-08T20:37:33.187Z,99298.34
2023-04-08T20:39:59.854Z,99294.91
2023-04-08T20:42:26.624Z,99304.03
2023-04-08T20:44:53.728Z,99299.50
2023-04-08T20:47:20.838Z,99302.84
2023-04-08T20:49:48.210Z,99302.44
2023-04-08T20:52:14.779Z,99301.59
2023-04-08T20:54:41.407Z,99309.19
2023-04-08T20:57:08.035Z,99301.06
2023-04-08T20:59:34.591Z,99304.75
2023-04-08T21:02:01.326Z,99303.88
2023-04-08T21:04:28.331Z,99305.06
2023-04-08T21:06:54.960Z,99299.44
2023-04-08T21:09:21.538Z,99302.50
2023-04-08T21:11:48.125Z,99306.97
2023-04-08T21:14:14.721Z,99305.63
2023-04-08T21:16:41.404Z,99310.94
2023-04-08T21:19:08.033Z,99309.97
2023-04-08T21:21:34.568Z,99314.09
2023-04-08T21:24:01.175Z,99309.38
2023-04-08T21:26:27.750Z,99308.25
2023-04-08T21:28:54.493Z,99315.16
2023-04-08T21:31:21.152Z,99306.94
2023-04-08T21:33:47.798Z,99304.88
2023-04-08T21:36:14.657Z,99301.28
2023-04-08T21:38:42.138Z,99308.22
2023-04-08T21:41:08.843Z,99303.47
2023-04-08T21:43:35.463Z,99304.31
2023-04-08T21:46:02.108Z,99310.28
2023-04-08T21:48:28.963Z,99309.22
2023-04-08T21:50:55.786Z,99308.25
2023-04-08T21:53:23.790Z,99302.78
2023-04-08T21:55:50.392Z,99307.13
2023-04-08T21:58:17.193Z,99317.63
2023-04-08T22:00:44.686Z,99312.66
2023-04-08T22:03:11.462Z,99315.03
2023-04-08T22:05:38.241Z,99306.53
2023-04-08T22:08:05.369Z,99312.50
2023-04-08T22:10:31.979Z,99313.75
2023-04-08T22:12:58.591Z,99310.06
2023-04-08T22:15:25.381Z,99313.41
2023-04-08T22:17:53.059Z,99310.81
2023-04-08T22:20:19.790Z,99313.63
2023-04-08T22:22:46.403Z,99316.97
2023-04-08T22:25:13.026Z,99315.16
2023-04-08T22:27:39.664Z,99314.75
2023-04-08T22:30:07.301Z,99307.72
2023-04-08T22:32:33.901Z,99310.03
2023-04-08T22:35:00.488Z,99315.09
2023-04-08T22:37:27.095Z,99314.25
2023-04-08T22:39:53.671Z,99306.25
2023-04-08T22:42:20.748Z,99305.88
2023-04-08T22:44:47.274Z,99307.22
2023-04-08T22:47:13.854Z,99311.97
2023-04-08T22:49:42.578Z,99307.28
2023-04-08T22:52:09.291Z,99313.22
2023-04-08T22:54:36.363Z,99312.38
2023-04-08T22:57:03.355Z,99307.59
2023-04-08T22:59:29.931Z,99310.97
2023-04-08T23:01:56.664Z,99311.28
2023-04-08T23:04:23.273Z,99316.53
2023-04-08T23:06:49.866Z,99313.91
2023-04-08T23:09:16.522Z,99311.31
2023-04-08T23:11:43.095Z,99310.84
2023-04-08T23:14:10.990Z,99314.75
2023-04-08T23:16:37.552Z,99305.03
2023-04-08T23:19:04.132Z,99310.69
2023-04-08T23:21:31.193Z,99313.69
2023-04-08T23:23:57.791Z,99310.13
2023-04-08T23:26:25.296Z,99319.38
2023-04-08T23:28:52.139Z,99316.56
2023-04-08T23:31:19.195Z,99317.16
2023-04-08T23:33:45.837Z,99313.53
2023-04-08T23:36:12.828Z,99313.69
2023-04-08T23:38:39.568Z,99308.34
2023-04-08T23:41:07.972Z,99313.94
2023-04-08T23:43:35.945Z,99319.66
2023-04-08T23:46:02.634Z,99315.63
2023-04-08T23:48:29.175Z,99309.91
2023-04-08T23:50:56.072Z,99310.06
2023-04-08T23:53:23.100Z,99310.84
2023-04-08T23:55:49.698Z,99316.03
2023-04-08T23:58:16.420Z,99306.59
